Time;durP1;ratioP1;P1;durP2;ratioP2;P2;SDS_P1;SDS_P2;PMS_P1;PMS_P2;Temp;Humidity;BMP_temperature;BMP_pressure;BME280_temperature;BME280_humidity;BME280_pressure;Samples;Min_cycle;Max_cycle;Signal;HPM_P1;HPM_P2
2022/12/04 00:01:51;;;;;;;;;;;3.40;99.90;;;;;;5062860;28;19917;-60
2022/12/04 00:04:16;;;;;;;;;;;3.40;99.90;;;;;;5068795;28;19912;-63
2022/12/04 00:06:42;;;;;;;;;;;3.40;99.90;;;;;;5066179;28;19916;-62
2022/12/04 00:09:07;;;;;;;;;;;3.40;99.90;;;;;;5061553;28;19916;-61
2022/12/04 00:11:33;;;;;;;;;;;3.40;99.90;;;;;;5067390;28;20003;-64
2022/12/04 00:13:59;;;;;;;;;;;3.40;99.90;;;;;;5067625;28;19950;-61
2022/12/04 00:16:25;;;;;;;;;;;3.40;99.90;;;;;;5066906;28;19952;-62
2022/12/04 00:18:51;;;;;;;;;;;3.40;99.90;;;;;;5068346;28;20290;-60
2022/12/04 00:21:17;;;;;;;;;;;3.40;99.90;;;;;;5068808;28;19913;-61
2022/12/04 00:23:43;;;;;;;;;;;3.30;99.90;;;;;;5068397;28;19913;-62
2022/12/04 00:26:13;;;;;;;;;;;3.30;99.90;;;;;;5064162;28;19923;-62
2022/12/04 00:28:38;;;;;;;;;;;3.40;99.90;;;;;;5070368;28;20033;-62
2022/12/04 00:31:05;;;;;;;;;;;3.40;99.90;;;;;;5064753;28;19920;-62
2022/12/04 00:33:30;;;;;;;;;;;3.40;99.90;;;;;;5072639;28;19913;-63
2022/12/04 00:35:56;;;;;;;;;;;;;;;;;;5067926;28;19920;-63
2022/12/04 00:38:22;;;;;;;;;;;3.30;99.90;;;;;;5071507;28;19916;-59
2022/12/04 00:40:48;;;;;;;;;;;3.30;99.90;;;;;;5070073;28;19924;-62
2022/12/04 00:43:14;;;;;;;;;;;3.30;99.90;;;;;;5064718;28;19966;-62
2022/12/04 00:45:39;;;;;;;;;;;3.30;99.90;;;;;;5066190;28;20007;-61
2022/12/04 00:48:04;;;;;;;;;;;3.30;99.90;;;;;;5069570;28;19932;-60
2022/12/04 00:50:30;;;;;;;;;;;3.30;99.90;;;;;;5069300;28;19940;-60
2022/12/04 00:52:56;;;;;;;;;;;3.40;99.90;;;;;;5068213;28;19919;-62
2022/12/04 00:55:22;;;;;;;;;;;3.40;99.90;;;;;;5064539;28;20009;-60
2022/12/04 00:57:47;;;;;;;;;;;3.30;99.90;;;;;;5067467;28;19956;-62
2022/12/04 01:00:13;;;;;;;;;;;3.30;99.90;;;;;;5066162;28;19920;-61
2022/12/04 01:02:38;;;;;;;;;;;3.30;99.90;;;;;;5066264;28;19928;-61
2022/12/04 01:05:04;;;;;;;;;;;3.30;99.90;;;;;;5073321;28;20140;-59
2022/12/04 01:07:29;;;;;;;;;;;3.30;99.90;;;;;;5066163;28;19924;-63
2022/12/04 01:09:55;;;;;;;;;;;3.30;99.90;;;;;;5070617;28;19920;-62
2022/12/04 01:12:20;;;;;;;;;;;3.40;99.90;;;;;;5063624;28;19921;-61
2022/12/04 01:14:46;;;;;;;;;;;3.40;99.90;;;;;;5066863;28;19919;-61
2022/12/04 01:17:11;;;;;;;;;;;3.40;99.90;;;;;;5063207;28;20020;-62
2022/12/04 01:19:37;;;;;;;;;;;3.40;99.90;;;;;;5066390;28;19913;-62
2022/12/04 01:22:02;;;;;;;;;;;3.30;99.90;;;;;;5066490;28;19913;-62
2022/12/04 01:24:28;;;;;;;;;;;3.30;99.90;;;;;;5064969;28;20367;-63
2022/12/04 01:26:53;;;;;;;;;;;3.30;99.90;;;;;;5064804;28;19916;-63
2022/12/04 01:29:19;;;;;;;;;;;3.20;99.90;;;;;;5048538;28;19912;-59
2022/12/04 01:31:45;;;;;;;;;;;3.30;99.90;;;;;;5068401;28;20340;-63
2022/12/04 01:34:10;;;;;;;;;;;3.30;99.90;;;;;;5067466;28;19956;-62
2022/12/04 01:36:36;;;;;;;;;;;3.30;99.90;;;;;;5067789;28;19940;-60
2022/12/04 01:39:01;;;;;;;;;;;3.30;99.90;;;;;;5073274;28;19916;-62
2022/12/04 01:41:28;;;;;;;;;;;3.40;99.90;;;;;;5069258;28;19928;-62
2022/12/04 01:44:07;;;;;;;;;;;3.40;99.90;;;;;;5069961;28;20435;-61
2022/12/04 01:46:32;;;;;;;;;;;3.30;99.90;;;;;;5066572;28;19917;-62
2022/12/04 01:48:58;;;;;;;;;;;3.30;99.90;;;;;;5069877;28;20453;-61
2022/12/04 01:51:34;;;;;;;;;;;3.30;99.90;;;;;;5070877;28;19943;-62
2022/12/04 01:54:01;;;;;;;;;;;3.30;99.90;;;;;;5069266;28;19920;-64
2022/12/04 01:56:47;;;;;;;;;;;3.40;99.90;;;;;;5071365;28;19920;-62
2022/12/04 01:59:14;;;;;;;;;;;3.30;99.90;;;;;;5072849;28;19916;-61
2022/12/04 02:01:48;;;;;;;;;;;3.30;99.90;;;;;;5064618;28;19916;-62
2022/12/04 02:04:14;;;;;;;;;;;3.20;99.90;;;;;;5069054;28;19919;-62
2022/12/04 02:06:39;;;;;;;;;;;3.20;99.90;;;;;;5069790;28;19921;-59
2022/12/04 02:09:05;;;;;;;;;;;3.20;99.90;;;;;;5069041;28;19948;-64
2022/12/04 02:11:45;;;;;;;;;;;3.20;99.90;;;;;;5051218;28;19974;-63
2022/12/04 02:14:20;;;;;;;;;;;3.30;99.90;;;;;;5068940;28;20348;-61
2022/12/04 02:16:49;;;;;;;;;;;3.30;99.90;;;;;;5070643;28;19913;-62
2022/12/04 02:19:37;;;;;;;;;;;3.30;99.90;;;;;;5070833;28;19930;-63
2022/12/04 02:22:04;;;;;;;;;;;3.30;99.90;;;;;;5050019;28;19995;-62
2022/12/04 02:24:41;;;;;;;;;;;3.30;99.90;;;;;;5073796;28;19931;-63
2022/12/04 02:27:25;;;;;;;;;;;3.20;99.90;;;;;;5069944;28;19934;-61
2022/12/04 02:29:58;;;;;;;;;;;3.20;99.90;;;;;;5066490;28;19920;-62
2022/12/04 02:32:35;;;;;;;;;;;3.20;99.90;;;;;;5068610;28;19912;-62
2022/12/04 02:35:04;;;;;;;;;;;3.30;99.90;;;;;;5069866;28;20340;-59
2022/12/04 02:37:42;;;;;;;;;;;3.20;99.90;;;;;;5052343;28;20282;-61
2022/12/04 02:40:10;;;;;;;;;;;3.30;99.90;;;;;;5071815;28;20031;-61
2022/12/04 02:42:39;;;;;;;;;;;3.40;99.90;;;;;;5052874;28;19920;-62
2022/12/04 02:45:09;;;;;;;;;;;3.30;99.90;;;;;;5065805;28;20288;-62
2022/12/04 02:47:36;;;;;;;;;;;3.30;99.90;;;;;;5069096;28;20432;-63
2022/12/04 02:50:06;;;;;;;;;;;3.20;99.90;;;;;;5068221;28;19962;-61
2022/12/04 02:52:33;;;;;;;;;;;3.30;99.90;;;;;;5071630;28;19920;-62
2022/12/04 02:55:01;;;;;;;;;;;3.20;99.90;;;;;;5068383;28;19920;-64
2022/12/04 02:57:30;;;;;;;;;;;3.10;99.90;;;;;;5070652;28;20624;-62
2022/12/04 02:59:57;;;;;;;;;;;3.00;99.90;;;;;;5068655;28;19919;-62
2022/12/04 03:02:22;;;;;;;;;;;3.10;99.90;;;;;;5065614;28;19924;-62
2022/12/04 03:04:49;;;;;;;;;;;3.10;99.90;;;;;;5073641;28;19920;-65
2022/12/04 03:07:23;;;;;;;;;;;3.10;99.90;;;;;;5072319;28;20054;-62
2022/12/04 03:09:53;;;;;;;;;;;3.10;99.90;;;;;;5069367;28;20298;-63
2022/12/04 03:12:23;;;;;;;;;;;3.10;99.90;;;;;;5070037;28;19932;-62
2022/12/04 03:14:53;;;;;;;;;;;3.10;99.90;;;;;;5068823;28;19919;-61
2022/12/04 03:17:24;;;;;;;;;;;3.00;99.90;;;;;;5064728;28;19913;-63
2022/12/04 03:19:52;;;;;;;;;;;3.00;99.90;;;;;;5067443;28;20002;-62
2022/12/04 03:22:19;;;;;;;;;;;3.10;99.90;;;;;;5073126;28;20417;-63
2022/12/04 03:24:55;;;;;;;;;;;3.10;99.90;;;;;;5067212;28;19919;-63
2022/12/04 03:27:27;;;;;;;;;;;3.00;99.90;;;;;;5070430;28;20441;-62
2022/12/04 03:29:56;;;;;;;;;;;3.00;99.90;;;;;;5072477;28;20049;-60
2022/12/04 03:32:24;;;;;;;;;;;3.00;99.90;;;;;;5067483;28;19939;-64
2022/12/04 03:34:54;;;;;;;;;;;3.00;99.90;;;;;;5071452;28;19912;-62
2022/12/04 03:37:24;;;;;;;;;;;2.90;99.90;;;;;;5076328;28;20393;-62
2022/12/04 03:39:56;;;;;;;;;;;3.00;99.90;;;;;;5071358;28;20390;-63
2022/12/04 03:42:26;;;;;;;;;;;3.00;99.90;;;;;;5048380;28;19987;-60
2022/12/04 03:45:03;;;;;;;;;;;3.00;99.90;;;;;;5069790;28;19943;-63
2022/12/04 03:47:28;;;;;;;;;;;2.90;99.90;;;;;;5068803;28;19969;-62
2022/12/04 03:49:54;;;;;;;;;;;2.90;99.90;;;;;;5064603;28;19913;-60
2022/12/04 03:52:39;;;;;;;;;;;3.00;99.90;;;;;;5073026;28;19974;-60
2022/12/04 03:55:40;;;;;;;;;;;3.00;99.90;;;;;;5067669;28;19959;-63
2022/12/04 03:58:08;;;;;;;;;;;2.90;99.90;;;;;;4980217;28;19922;-62
2022/12/04 04:00:36;;;;;;;;;;;3.00;99.90;;;;;;5049845;28;19942;-63
2022/12/04 04:03:19;;;;;;;;;;;2.90;99.90;;;;;;5065943;28;19927;-61
2022/12/04 04:05:46;;;;;;;;;;;2.90;99.90;;;;;;5069644;28;19920;-62
2022/12/04 04:08:24;;;;;;;;;;;2.90;99.90;;;;;;5068370;28;19916;-63
2022/12/04 04:10:51;;;;;;;;;;;2.90;99.90;;;;;;5068927;28;19919;-62
2022/12/04 04:24:26;;;;;;;;;;;2.90;99.90;;;;;;5066814;28;19995;-61
2022/12/04 04:26:52;;;;;;;;;;;2.90;99.90;;;;;;5068520;28;19920;-63
2022/12/04 04:29:18;;;;;;;;;;;2.90;99.90;;;;;;5071558;28;20413;-61
2022/12/04 04:31:52;;;;;;;;;;;2.90;99.90;;;;;;5071403;28;20015;-62
2022/12/04 04:34:18;;;;;;;;;;;2.90;99.90;;;;;;5068199;28;19966;-62
2022/12/04 04:36:52;;;;;;;;;;;2.90;99.90;;;;;;5067646;28;19912;-63
2022/12/04 04:39:23;;;;;;;;;;;2.90;99.90;;;;;;5064227;28;19970;-63
2022/12/04 04:41:51;;;;;;;;;;;3.00;99.90;;;;;;5067954;28;20355;-62
2022/12/04 04:44:20;;;;;;;;;;;2.90;99.90;;;;;;5070113;28;20397;-62
2022/12/04 04:46:48;;;;;;;;;;;2.80;99.90;;;;;;5067355;28;20407;-62
2022/12/04 04:49:15;;;;;;;;;;;2.80;99.90;;;;;;5064351;28;20583;-64
2022/12/04 04:51:41;;;;;;;;;;;2.90;99.90;;;;;;5067796;28;19920;-62
2022/12/04 04:54:09;;;;;;;;;;;2.80;99.90;;;;;;5070875;28;19924;-62
2022/12/04 04:56:44;;;;;;;;;;;2.80;99.90;;;;;;5067896;28;20003;-63
2022/12/04 04:59:10;;;;;;;;;;;2.70;99.90;;;;;;5070522;28;20381;-61
2022/12/04 05:01:36;;;;;;;;;;;2.70;99.90;;;;;;5064832;28;19912;-63
2022/12/04 05:04:03;;;;;;;;;;;2.80;99.90;;;;;;5065702;28;20371;-64
2022/12/04 05:06:28;;;;;;;;;;;2.80;99.90;;;;;;5063039;28;19969;-64
2022/12/04 05:08:54;;;;;;;;;;;2.80;99.90;;;;;;5065811;28;19917;-65
2022/12/04 05:11:19;;;;;;;;;;;2.80;99.90;;;;;;5064048;28;19951;-64
2022/12/04 05:13:45;;;;;;;;;;;2.80;99.90;;;;;;5067255;28;19912;-64
2022/12/04 05:16:12;;;;;;;;;;;2.70;99.90;;;;;;5064803;28;19999;-61
2022/12/04 05:18:37;;;;;;;;;;;2.80;99.90;;;;;;5068319;28;20421;-61
2022/12/04 05:21:17;;;;;;;;;;;2.70;99.90;;;;;;5064986;28;19952;-61
2022/12/04 05:23:43;;;;;;;;;;;2.70;99.90;;;;;;5068248;28;19913;-60
2022/12/04 05:26:08;;;;;;;;;;;2.80;99.90;;;;;;5068781;28;19969;-64
2022/12/04 05:28:34;;;;;;;;;;;2.70;99.90;;;;;;5071504;28;19912;-58
2022/12/04 05:31:01;;;;;;;;;;;2.60;99.90;;;;;;5066623;28;19912;-62
2022/12/04 05:33:27;;;;;;;;;;;2.60;99.90;;;;;;5047660;28;19924;-63
2022/12/04 05:36:00;;;;;;;;;;;2.70;99.90;;;;;;5064595;28;20835;-62
2022/12/04 05:38:25;;;;;;;;;;;2.70;99.90;;;;;;5065740;28;19935;-62
2022/12/04 05:40:51;;;;;;;;;;;2.60;99.90;;;;;;5088746;22;19929;-58
2022/12/04 05:43:17;;;;;;;;;;;2.60;99.90;;;;;;5049731;28;20414;-57
2022/12/04 05:45:42;;;;;;;;;;;2.60;99.90;;;;;;5065571;28;19912;-58
2022/12/04 05:48:07;;;;;;;;;;;2.60;99.90;;;;;;5067607;28;19982;-54
2022/12/04 05:50:33;;;;;;;;;;;2.60;99.90;;;;;;5065727;28;19924;-57
2022/12/04 05:52:58;;;;;;;;;;;2.60;99.90;;;;;;5049174;28;19912;-54
2022/12/04 05:55:24;;;;;;;;;;;2.60;99.90;;;;;;5049922;28;20332;-59
2022/12/04 05:57:49;;;;;;;;;;;2.60;99.90;;;;;;5046156;28;19974;-59
2022/12/04 06:00:15;;;;;;;;;;;2.60;99.90;;;;;;5049199;28;19921;-60
2022/12/04 06:02:40;;;;;;;;;;;2.70;99.90;;;;;;5049524;28;19923;-58
2022/12/04 06:05:06;;;;;;;;;;;2.70;99.90;;;;;;5046220;28;19924;-58
2022/12/04 06:07:31;;;;;;;;;;;2.70;99.90;;;;;;5054664;28;19955;-59
2022/12/04 06:09:57;;;;;;;;;;;2.70;99.90;;;;;;5051687;28;20379;-59
2022/12/04 06:12:22;;;;;;;;;;;2.70;99.90;;;;;;5050173;28;19913;-57
2022/12/04 06:14:48;;;;;;;;;;;2.80;99.90;;;;;;5045446;28;19913;-55
2022/12/04 06:17:13;;;;;;;;;;;2.80;99.90;;;;;;5048757;28;19920;-54
2022/12/04 06:19:39;;;;;;;;;;;2.70;99.90;;;;;;5049426;28;19921;-57
2022/12/04 06:22:04;;;;;;;;;;;2.70;99.90;;;;;;5047969;28;19923;-59
2022/12/04 06:24:30;;;;;;;;;;;2.70;99.90;;;;;;5053465;28;19913;-59
2022/12/04 06:26:56;;;;;;;;;;;2.70;99.90;;;;;;5054480;28;19931;-54
2022/12/04 06:29:22;;;;;;;;;;;2.60;99.90;;;;;;5050422;28;19920;-56
2022/12/04 06:31:47;;;;;;;;;;;2.60;99.90;;;;;;5051831;28;19921;-57
2022/12/04 06:34:13;;;;;;;;;;;2.60;99.90;;;;;;5050060;28;19956;-59
2022/12/04 06:36:38;;;;;;;;;;;2.60;99.90;;;;;;5048704;28;19913;-59
2022/12/04 06:39:04;;;;;;;;;;;2.60;99.90;;;;;;5053098;28;20020;-57
2022/12/04 06:41:30;;;;;;;;;;;2.60;99.90;;;;;;5052798;28;20392;-58
2022/12/04 06:43:56;;;;;;;;;;;2.50;99.90;;;;;;5056386;28;19965;-59
2022/12/04 06:46:22;;;;;;;;;;;2.70;99.90;;;;;;5049964;28;19928;-60
2022/12/04 06:48:48;;;;;;;;;;;2.70;99.90;;;;;;5055106;28;19921;-55
2022/12/04 06:51:18;;;;;;;;;;;2.60;99.90;;;;;;5050356;28;19924;-56
2022/12/04 06:53:44;;;;;;;;;;;2.60;99.90;;;;;;5046096;28;20423;-56
2022/12/04 06:56:11;;;;;;;;;;;2.40;99.90;;;;;;5050010;28;19921;-60
2022/12/04 06:58:37;;;;;;;;;;;2.40;99.90;;;;;;5047342;28;19951;-59
2022/12/04 07:01:10;;;;;;;;;;;2.40;99.90;;;;;;5047156;28;19961;-56
2022/12/04 07:03:36;;;;;;;;;;;2.40;99.90;;;;;;5051169;28;19913;-57
2022/12/04 07:06:20;;;;;;;;;;;2.40;99.90;;;;;;5047283;28;19916;-54
2022/12/04 07:08:47;;;;;;;;;;;2.50;99.90;;;;;;5049253;28;19959;-55
2022/12/04 07:11:13;;;;;;;;;;;2.50;99.90;;;;;;5052283;28;19921;-55
2022/12/04 07:13:38;;;;;;;;;;;2.60;99.90;;;;;;5053650;28;19963;-56
2022/12/04 07:16:05;;;;;;;;;;;2.60;99.90;;;;;;5050573;28;19912;-55
2022/12/04 07:18:31;;;;;;;;;;;2.60;99.90;;;;;;5049473;28;20268;-57
2022/12/04 07:20:57;;;;;;;;;;;2.60;99.90;;;;;;5045426;28;19962;-54
2022/12/04 07:23:22;;;;;;;;;;;2.50;99.90;;;;;;5055441;28;19921;-56
2022/12/04 07:25:48;;;;;;;;;;;2.40;99.90;;;;;;5056966;28;20354;-57
2022/12/04 07:28:13;;;;;;;;;;;2.30;99.90;;;;;;5052876;28;19921;-53
2022/12/04 07:30:39;;;;;;;;;;;2.40;99.90;;;;;;5052513;28;20030;-55
2022/12/04 07:33:04;;;;;;;;;;;2.30;99.90;;;;;;5046751;28;19917;-56
2022/12/04 07:35:30;;;;;;;;;;;2.40;99.90;;;;;;5052353;28;19913;-52
2022/12/04 07:37:55;;;;;;;;;;;2.40;99.90;;;;;;5047791;28;20317;-56
2022/12/04 07:40:21;;;;;;;;;;;2.40;99.90;;;;;;5050849;28;19931;-54
2022/12/04 07:42:46;;;;;;;;;;;2.40;99.90;;;;;;5051238;28;19920;-57
2022/12/04 07:45:12;;;;;;;;;;;2.40;99.90;;;;;;5046655;28;19982;-53
2022/12/04 07:47:37;;;;;;;;;;;2.50;99.90;;;;;;5051027;28;19924;-55
2022/12/04 07:50:03;;;;;;;;;;;2.50;99.90;;;;;;5049626;28;19936;-54
2022/12/04 07:52:29;;;;;;;;;;;2.30;99.90;;;;;;5056278;28;19913;-55
2022/12/04 07:54:54;;;;;;;;;;;2.30;99.90;;;;;;5054126;28;21192;-53
2022/12/04 07:57:20;;;;;;;;;;;2.30;99.90;;;;;;5052037;28;19913;-53
2022/12/04 07:59:45;;;;;;;;;;;2.40;99.90;;;;;;5047836;28;19913;-54
2022/12/04 08:02:11;;;;;;;;;;;2.40;99.90;;;;;;5049676;28;20081;-56
2022/12/04 08:04:37;;;;;;;;;;;2.40;99.90;;;;;;5052856;28;20383;-54
2022/12/04 08:07:02;;;;;;;;;;;2.40;99.90;;;;;;5050524;28;19931;-54
2022/12/04 08:09:28;;;;;;;;;;;2.40;99.90;;;;;;5048185;28;19917;-54
2022/12/04 08:11:53;;;;;;;;;;;2.40;99.90;;;;;;5052290;28;19983;-55
2022/12/04 08:14:19;;;;;;;;;;;2.30;99.90;;;;;;5047086;28;19916;-56
2022/12/04 08:16:44;;;;;;;;;;;2.20;99.90;;;;;;5047663;28;19912;-56
2022/12/04 08:19:10;;;;;;;;;;;2.20;99.90;;;;;;5042260;28;19913;-56
2022/12/04 08:21:35;;;;;;;;;;;2.20;99.90;;;;;;5049737;28;19921;-55
2022/12/04 08:24:01;;;;;;;;;;;2.20;99.90;;;;;;5051064;28;20253;-54
2022/12/04 08:26:27;;;;;;;;;;;2.20;99.90;;;;;;5050027;28;19925;-54
2022/12/04 08:28:54;;;;;;;;;;;2.20;99.90;;;;;;5054493;28;19919;-54
2022/12/04 08:31:21;;;;;;;;;;;2.30;99.90;;;;;;5044292;28;19912;-54
2022/12/04 08:33:47;;;;;;;;;;;2.30;99.90;;;;;;5047050;28;20012;-53
2022/12/04 08:36:14;;;;;;;;;;;2.30;99.90;;;;;;5050077;28;19925;-54
2022/12/04 08:38:40;;;;;;;;;;;2.20;99.90;;;;;;5055790;28;19990;-54
2022/12/04 08:41:07;;;;;;;;;;;2.30;99.90;;;;;;5050855;28;19949;-55
2022/12/04 08:43:33;;;;;;;;;;;2.20;99.90;;;;;;5048533;28;19913;-56
2022/12/04 08:46:00;;;;;;;;;;;2.30;99.90;;;;;;5050836;28;19923;-53
2022/12/04 08:48:26;;;;;;;;;;;2.30;99.90;;;;;;5051548;28;19931;-54
2022/12/04 08:50:51;;;;;;;;;;;2.30;99.90;;;;;;5049969;28;20418;-56
2022/12/04 08:53:16;;;;;;;;;;;2.30;99.90;;;;;;5055722;28;20030;-56
2022/12/04 08:55:42;;;;;;;;;;;2.40;99.90;;;;;;5047585;28;20291;-53
2022/12/04 08:58:07;;;;;;;;;;;2.30;99.90;;;;;;5053158;28;20382;-56
2022/12/04 09:00:33;;;;;;;;;;;2.30;99.90;;;;;;5051210;28;19913;-55
2022/12/04 09:02:58;;;;;;;;;;;2.40;99.90;;;;;;5055558;28;19962;-56
2022/12/04 09:05:24;;;;;;;;;;;2.30;99.90;;;;;;5051418;28;19924;-56
2022/12/04 09:07:49;;;;;;;;;;;2.40;99.90;;;;;;5051476;28;19923;-55
2022/12/04 09:10:14;;;;;;;;;;;2.30;99.90;;;;;;5050091;28;19913;-55
2022/12/04 09:12:40;;;;;;;;;;;2.30;99.90;;;;;;5057498;28;20387;-56
2022/12/04 09:15:06;;;;;;;;;;;2.30;99.90;;;;;;5050272;28;20004;-53
2022/12/04 09:17:32;;;;;;;;;;;2.40;99.90;;;;;;5054532;28;19970;-55
2022/12/04 09:19:58;;;;;;;;;;;2.40;99.90;;;;;;5049511;28;20517;-56
2022/12/04 09:22:23;;;;;;;;;;;2.30;99.90;;;;;;5050479;28;19917;-55
2022/12/04 09:24:49;;;;;;;;;;;2.40;99.90;;;;;;5052497;28;19917;-54
2022/12/04 09:27:15;;;;;;;;;;;2.40;99.90;;;;;;5053146;28;19972;-54
2022/12/04 09:29:41;;;;;;;;;;;2.40;99.90;;;;;;5055275;28;20196;-54
2022/12/04 09:32:06;;;;;;;;;;;2.30;99.90;;;;;;5049310;28;19959;-54
2022/12/04 09:34:32;;;;;;;;;;;2.30;99.90;;;;;;5056295;28;19982;-54
2022/12/04 09:36:57;;;;;;;;;;;2.30;99.90;;;;;;5057995;28;19966;-53
2022/12/04 09:39:23;;;;;;;;;;;2.30;99.90;;;;;;5050925;28;19919;-53
2022/12/04 09:41:51;;;;;;;;;;;2.40;99.90;;;;;;5055062;28;19923;-54
2022/12/04 09:44:16;;;;;;;;;;;2.40;99.90;;;;;;5050094;28;20441;-54
2022/12/04 09:46:50;;;;;;;;;;;2.30;99.90;;;;;;5058548;28;20003;-54
2022/12/04 09:49:48;;;;;;;;;;;2.30;99.90;;;;;;5060419;28;19912;-53
2022/12/04 09:52:24;;;;;;;;;;;2.40;99.90;;;;;;4996977;28;20424;-54
2022/12/04 09:54:51;;;;;;;;;;;2.50;99.90;;;;;;5051600;28;19913;-53
2022/12/04 09:57:45;;;;;;;;;;;2.40;99.90;;;;;;5057346;28;20397;-54
2022/12/04 10:00:13;;;;;;;;;;;2.50;99.90;;;;;;5044794;28;19932;-55
2022/12/04 10:02:43;;;;;;;;;;;2.40;99.90;;;;;;5061672;28;19913;-55
2022/12/04 10:05:17;;;;;;;;;;;2.50;99.90;;;;;;5053439;28;19913;-53
2022/12/04 10:07:42;;;;;;;;;;;2.60;99.90;;;;;;5061212;28;19924;-53
2022/12/04 10:10:22;;;;;;;;;;;2.50;99.90;;;;;;5054568;28;19913;-54
2022/12/04 10:13:02;;;;;;;;;;;2.50;99.90;;;;;;5057921;28;20731;-53
2022/12/04 10:15:27;;;;;;;;;;;2.60;99.90;;;;;;5056693;28;20003;-55
2022/12/04 10:18:16;;;;;;;;;;;2.60;99.90;;;;;;5054639;28;19952;-55
2022/12/04 10:20:42;;;;;;;;;;;2.70;99.90;;;;;;5052871;28;20015;-53
2022/12/04 10:23:16;;;;;;;;;;;2.50;99.90;;;;;;5054301;28;19995;-56
2022/12/04 10:25:42;;;;;;;;;;;2.50;99.90;;;;;;5058269;28;20340;-52
2022/12/04 10:28:10;;;;;;;;;;;2.60;99.90;;;;;;5060031;28;19916;-56
2022/12/04 10:30:36;;;;;;;;;;;2.70;99.90;;;;;;5053573;28;19936;-54
2022/12/04 10:33:34;;;;;;;;;;;2.70;99.90;;;;;;5054168;28;20386;-56
2022/12/04 10:36:00;;;;;;;;;;;2.70;99.90;;;;;;5026950;28;19921;-57
2022/12/04 10:38:44;;;;;;;;;;;2.80;99.90;;;;;;5067882;28;19912;-54
2022/12/04 10:41:14;;;;;;;;;;;2.80;99.90;;;;;;5053533;28;20412;-55
2022/12/04 10:43:39;;;;;;;;;;;2.80;99.90;;;;;;5055007;28;19917;-56
2022/12/04 10:46:06;;;;;;;;;;;2.60;99.90;;;;;;5051269;28;19917;-57
2022/12/04 10:48:34;;;;;;;;;;;2.60;99.90;;;;;;5054240;28;19921;-56
2022/12/04 10:51:00;;;;;;;;;;;2.70;99.90;;;;;;5054355;28;20344;-57
2022/12/04 10:53:29;;;;;;;;;;;2.80;99.90;;;;;;5056085;28;19913;-55
2022/12/04 10:55:54;;;;;;;;;;;2.90;99.90;;;;;;5052355;28;19913;-55
2022/12/04 10:58:19;;;;;;;;;;;2.80;99.90;;;;;;5051861;28;20387;-57
2022/12/04 11:00:56;;;;;;;;;;;2.80;99.90;;;;;;5056245;28;20349;-56
2022/12/04 11:03:23;;;;;;;;;;;2.90;99.90;;;;;;5051832;28;19920;-57
2022/12/04 11:05:54;;;;;;;;;;;2.80;99.90;;;;;;5049567;28;19974;-57
2022/12/04 11:08:29;;;;;;;;;;;2.80;99.90;;;;;;5050660;28;19970;-56
2022/12/04 11:10:56;;;;;;;;;;;2.90;99.90;;;;;;5052803;28;19951;-54
2022/12/04 11:13:23;;;;;;;;;;;2.80;99.90;;;;;;5058096;28;19917;-56
2022/12/04 11:15:50;;;;;;;;;;;2.90;99.90;;;;;;5056094;28;19943;-54
2022/12/04 11:18:22;;;;;;;;;;;2.80;99.90;;;;;;5056923;28;19913;-55
2022/12/04 11:20:49;;;;;;;;;;;2.80;99.90;;;;;;5049093;28;19935;-52
2022/12/04 11:23:15;;;;;;;;;;;3.00;99.90;;;;;;5044769;28;21405;-54
2022/12/04 11:25:44;;;;;;;;;;;3.00;99.90;;;;;;5051277;28;20318;-54
2022/12/04 11:28:13;;;;;;;;;;;3.10;99.90;;;;;;5055580;28;19916;-56
2022/12/04 11:30:39;;;;;;;;;;;3.10;99.90;;;;;;5054848;28;19975;-56
2022/12/04 11:33:07;;;;;;;;;;;3.00;99.90;;;;;;5054277;28;19912;-56
2022/12/04 11:35:32;;;;;;;;;;;2.90;99.90;;;;;;5057036;28;19956;-55
2022/12/04 11:38:12;;;;;;;;;;;2.90;99.90;;;;;;5048806;28;20093;-54
2022/12/04 11:43:08;;;;;;;;;;;2.90;99.90;;;;;;5043607;28;20089;-50
2022/12/04 11:45:34;;;;;;;;;;;2.90;99.90;;;;;;5041610;28;19999;-54
2022/12/04 11:48:03;;;;;;;;;;;2.90;99.90;;;;;;5040175;28;20035;-52
2022/12/04 11:50:38;;;;;;;;;;;3.00;99.90;;;;;;5039299;28;20434;-51
2022/12/04 11:53:13;;;;;;;;;;;3.00;99.90;;;;;;5042572;28;20057;-51
2022/12/04 11:55:38;;;;;;;;;;;3.00;99.90;;;;;;5043691;28;19966;-55
2022/12/04 11:58:23;;;;;;;;;;;3.20;99.90;;;;;;5044970;28;19917;-53
2022/12/04 12:00:52;;;;;;;;;;;3.20;99.90;;;;;;5043275;28;19920;-52
2022/12/04 12:03:21;;;;;;;;;;;3.10;99.90;;;;;;5043490;28;20643;-56
2022/12/04 12:05:53;;;;;;;;;;;3.00;99.90;;;;;;5043663;28;19913;-57
2022/12/04 12:08:18;;;;;;;;;;;3.10;99.90;;;;;;5041857;28;19963;-53
2022/12/04 12:11:03;;;;;;;;;;;3.20;99.90;;;;;;5044140;28;19920;-54
2022/12/04 12:13:32;;;;;;;;;;;3.30;99.90;;;;;;5044624;28;19936;-52
2022/12/04 12:15:58;;;;;;;;;;;3.40;99.90;;;;;;5045913;28;19956;-56
2022/12/04 12:18:26;;;;;;;;;;;3.40;99.90;;;;;;5043427;28;19975;-56
2022/12/04 12:21:09;;;;;;;;;;;3.40;99.90;;;;;;5042856;28;19919;-56
2022/12/04 12:23:46;;;;;;;;;;;3.30;99.90;;;;;;5042913;28;19936;-54
2022/12/04 12:26:16;;;;;;;;;;;3.20;99.90;;;;;;5042492;28;19921;-54
2022/12/04 12:29:19;;;;;;;;;;;3.20;99.90;;;;;;5042979;28;19913;-56
2022/12/04 12:32:03;;;;;;;;;;;3.30;99.90;;;;;;4979283;28;19922;-52
2022/12/04 12:34:36;;;;;;;;;;;3.30;99.90;;;;;;4980963;28;19925;-52
2022/12/04 12:37:20;;;;;;;;;;;3.30;99.90;;;;;;5023184;28;19925;-53
2022/12/04 12:39:49;;;;;;;;;;;3.20;99.90;;;;;;5043679;28;20322;-56
2022/12/04 12:42:22;;;;;;;;;;;3.20;99.90;;;;;;5043198;28;21317;-58
2022/12/04 12:44:52;;;;;;;;;;;3.20;99.90;;;;;;5043744;28;19921;-56
2022/12/04 12:47:19;;;;;;;;;;;3.20;99.90;;;;;;5043042;28;20454;-57
2022/12/04 12:49:54;;;;;;;;;;;3.20;99.90;;;;;;5041587;28;19967;-55
2022/12/04 12:52:38;;;;;;;;;;;3.30;99.90;;;;;;5041216;28;20367;-56
2022/12/04 12:55:22;;;;;;;;;;;3.30;99.90;;;;;;5043715;28;19913;-52
2022/12/04 12:57:54;;;;;;;;;;;3.30;99.90;;;;;;5041604;28;19949;-52
2022/12/04 13:00:20;;;;;;;;;;;3.30;99.90;;;;;;5041268;28;19913;-55
2022/12/04 13:02:48;;;;;;;;;;;3.40;99.90;;;;;;5042761;28;19916;-53
2022/12/04 13:05:16;;;;;;;;;;;3.40;99.90;;;;;;5048326;28;19913;-56
2022/12/04 13:08:00;;;;;;;;;;;3.40;99.90;;;;;;5047336;28;20340;-56
2022/12/04 13:10:39;;;;;;;;;;;3.30;99.90;;;;;;5047085;28;19913;-54
2022/12/04 13:13:18;;;;;;;;;;;3.30;99.90;;;;;;5044466;28;20008;-52
2022/12/04 13:15:47;;;;;;;;;;;3.40;99.90;;;;;;5040159;28;20413;-53
2022/12/04 13:18:28;;;;;;;;;;;3.20;99.90;;;;;;5045365;28;19913;-54
2022/12/04 13:20:56;;;;;;;;;;;3.20;99.90;;;;;;5043751;28;19916;-52
2022/12/04 13:23:33;;;;;;;;;;;3.20;99.90;;;;;;5044436;28;19920;-55
2022/12/04 13:26:17;;;;;;;;;;;3.30;99.90;;;;;;5045862;28;19966;-51
2022/12/04 13:28:49;;;;;;;;;;;3.40;99.90;;;;;;5047623;28;19925;-59
2022/12/04 13:31:32;;;;;;;;;;;3.50;99.90;;;;;;5040406;28;19944;-57
2022/12/04 13:34:16;;;;;;;;;;;3.50;99.90;;;;;;5042572;28;21340;-53
2022/12/04 13:36:54;;;;;;;;;;;3.50;99.90;;;;;;5043082;28;19920;-56
2022/12/04 13:39:38;;;;;;;;;;;3.40;99.90;;;;;;5041529;28;19921;-56
2022/12/04 13:42:05;;;;;;;;;;;3.50;99.90;;;;;;5042875;28;19970;-52
2022/12/04 13:44:32;;;;;;;;;;;3.60;99.90;;;;;;5043446;28;19917;-52
2022/12/04 13:46:59;;;;;;;;;;;3.60;99.90;;;;;;5045229;28;19917;-57
2022/12/04 13:49:33;;;;;;;;;;;3.60;99.90;;;;;;5044636;28;19966;-58
2022/12/04 13:52:01;;;;;;;;;;;3.60;99.90;;;;;;5042286;28;19917;-53
2022/12/04 13:54:31;;;;;;;;;;;3.60;99.90;;;;;;5026374;28;19921;-58
2022/12/04 13:57:14;;;;;;;;;;;3.60;99.90;;;;;;5046003;28;20243;-58
2022/12/04 13:59:41;;;;;;;;;;;3.60;99.90;;;;;;5041717;28;20275;-53
2022/12/04 14:02:15;;;;;;;;;;;3.50;99.90;;;;;;5043956;28;19966;-54
2022/12/04 14:04:45;;;;;;;;;;;3.50;99.90;;;;;;5042883;28;19927;-53
2022/12/04 14:07:23;;;;;;;;;;;3.50;99.90;;;;;;5042986;28;19921;-54
2022/12/04 14:09:52;;;;;;;;;;;3.60;99.90;;;;;;5042413;28;19942;-55
2022/12/04 14:12:22;;;;;;;;;;;3.70;99.90;;;;;;5038561;28;19935;-54
2022/12/04 14:14:54;;;;;;;;;;;3.70;99.90;;;;;;5043478;28;19921;-55
2022/12/04 14:17:24;;;;;;;;;;;3.70;99.90;;;;;;5043096;28;19919;-56
2022/12/04 14:19:51;;;;;;;;;;;3.80;99.90;;;;;;5043493;28;20367;-54
2022/12/04 14:22:39;;;;;;;;;;;3.80;99.90;;;;;;5038494;28;19943;-54
2022/12/04 14:25:06;;;;;;;;;;;3.70;99.90;;;;;;5038286;28;19964;-59
2022/12/04 14:27:40;;;;;;;;;;;3.70;99.90;;;;;;5044205;28;20382;-59
2022/12/04 14:30:21;;;;;;;;;;;3.60;99.90;;;;;;5041509;28;20436;-57
2022/12/04 14:32:51;;;;;;;;;;;3.70;99.90;;;;;;5040070;28;19913;-55
2022/12/04 14:35:24;;;;;;;;;;;3.70;99.90;;;;;;5041812;28;19917;-54
2022/12/04 14:37:53;;;;;;;;;;;3.80;99.90;;;;;;5042913;28;19912;-56
2022/12/04 14:40:24;;;;;;;;;;;3.80;99.90;;;;;;5041617;28;19996;-58
2022/12/04 14:42:50;;;;;;;;;;;3.80;99.90;;;;;;5043827;28;19924;-55
2022/12/04 14:45:35;;;;;;;;;;;3.90;99.90;;;;;;5047550;28;19913;-56
2022/12/04 14:48:19;;;;;;;;;;;3.80;99.90;;;;;;5045604;28;19932;-56
2022/12/04 14:50:45;;;;;;;;;;;3.70;99.90;;;;;;5045519;28;20317;-55
2022/12/04 14:53:28;;;;;;;;;;;3.80;99.90;;;;;;5042033;28;19929;-53
2022/12/04 14:56:06;;;;;;;;;;;3.80;99.90;;;;;;5041955;28;19920;-52
2022/12/04 14:58:33;;;;;;;;;;;3.80;99.90;;;;;;5042534;28;19920;-51